sensor_id;sensor_type;location;lat;lon;timestamp;P1;durP1;ratioP1;P2;durP2;ratioP2
10442;SDS011;5269;51.146;16.986;2023-01-13T05:12:35;3.15;;;1.77;;
10442;SDS011;5269;51.146;16.986;2023-01-13T05:15:19;3.53;;;1.80;;
10442;SDS011;5269;51.146;16.986;2023-01-13T05:18:03;1.77;;;1.58;;
10442;SDS011;5269;51.146;16.986;2023-01-13T05:28:42;2.03;;;1.80;;
10442;SDS011;5269;51.146;16.986;2023-01-13T05:31:10;3.58;;;1.80;;
10442;SDS011;5269;51.146;16.986;2023-01-13T05:33:53;1.65;;;1.30;;
10442;SDS011;5269;51.146;16.986;2023-01-13T05:36:21;2.80;;;1.70;;
10442;SDS011;5269;51.146;16.986;2023-01-13T05:38:57;2.80;;;1.48;;
10442;SDS011;5269;51.146;16.986;2023-01-13T05:41:25;1.33;;;1.23;;
10442;SDS011;5269;51.146;16.986;2023-01-13T05:44:28;1.50;;;1.40;;
10442;SDS011;5269;51.146;16.986;2023-01-13T05:46:58;4.35;;;1.40;;
10442;SDS011;5269;51.146;16.986;2023-01-13T05:49:25;1.75;;;1.63;;
10442;SDS011;5269;51.146;16.986;2023-01-13T05:51:58;1.58;;;1.48;;
10442;SDS011;5269;51.146;16.986;2023-01-13T05:54:32;2.00;;;1.60;;
10442;SDS011;5269;51.146;16.986;2023-01-13T06:06:38;2.38;;;1.50;;
10442;SDS011;5269;51.146;16.986;2023-01-13T06:09:12;1.48;;;1.38;;
10442;SDS011;5269;51.146;16.986;2023-01-13T06:11:39;2.80;;;1.63;;
10442;SDS011;5269;51.146;16.986;2023-01-13T06:14:10;2.50;;;1.65;;
10442;SDS011;5269;51.146;16.986;2023-01-13T06:16:43;3.00;;;1.55;;
10442;SDS011;5269;51.146;16.986;2023-01-13T06:19:14;1.70;;;1.30;;
10442;SDS011;5269;51.146;16.986;2023-01-13T06:21:45;1.70;;;1.60;;
10442;SDS011;5269;51.146;16.986;2023-01-13T06:24:14;1.60;;;1.50;;
10442;SDS011;5269;51.146;16.986;2023-01-13T06:26:43;1.58;;;1.42;;
10442;SDS011;5269;51.146;16.986;2023-01-13T06:29:13;2.33;;;1.50;;
10442;SDS011;5269;51.146;16.986;2023-01-13T06:31:43;2.00;;;1.30;;
10442;SDS011;5269;51.146;16.986;2023-01-13T06:34:15;1.70;;;1.38;;
10442;SDS011;5269;51.146;16.986;2023-01-13T06:36:49;2.03;;;1.50;;
10442;SDS011;5269;51.146;16.986;2023-01-13T06:39:21;2.50;;;1.33;;
10442;SDS011;5269;51.146;16.986;2023-01-13T06:41:54;1.45;;;1.35;;
10442;SDS011;5269;51.146;16.986;2023-01-13T06:44:40;1.63;;;1.40;;
10442;SDS011;5269;51.146;16.986;2023-01-13T06:49:49;1.30;;;1.20;;
10442;SDS011;5269;51.146;16.986;2023-01-13T12:49:28;2.03;;;1.60;;
10442;SDS011;5269;51.146;16.986;2023-01-13T12:55:00;2.28;;;1.70;;
10442;SDS011;5269;51.146;16.986;2023-01-13T13:59:09;2.40;;;2.08;;
10442;SDS011;5269;51.146;16.986;2023-01-13T14:01:39;4.18;;;2.00;;
10442;SDS011;5269;51.146;16.986;2023-01-13T14:04:13;4.10;;;1.90;;
10442;SDS011;5269;51.146;16.986;2023-01-13T14:09:19;2.35;;;2.10;;
10442;SDS011;5269;51.146;16.986;2023-01-13T14:11:54;2.83;;;2.10;;
10442;SDS011;5269;51.146;16.986;2023-01-13T14:17:05;2.25;;;2.05;;
10442;SDS011;5269;51.146;16.986;2023-01-13T14:20:04;2.75;;;2.13;;
10442;SDS011;5269;51.146;16.986;2023-01-13T14:39:49;1.60;;;1.50;;
10442;SDS011;5269;51.146;16.986;2023-01-13T14:42:18;1.75;;;1.55;;
10442;SDS011;5269;51.146;16.986;2023-01-13T14:44:47;1.50;;;1.40;;
10442;SDS011;5269;51.146;16.986;2023-01-13T14:47:19;2.45;;;1.63;;
10442;SDS011;5269;51.146;16.986;2023-01-13T14:49:52;2.05;;;1.83;;
10442;SDS011;5269;51.146;16.986;2023-01-13T14:52:27;1.70;;;1.60;;
10442;SDS011;5269;51.146;16.986;2023-01-13T14:55:21;1.67;;;1.58;;
10442;SDS011;5269;51.146;16.986;2023-01-13T15:03:52;1.13;;;1.13;;
10442;SDS011;5269;51.146;16.986;2023-01-13T15:06:23;1.52;;;1.40;;
10442;SDS011;5269;51.146;16.986;2023-01-13T15:08:51;1.50;;;1.40;;
10442;SDS011;5269;51.146;16.986;2023-01-13T15:11:23;1.70;;;1.60;;
10442;SDS011;5269;51.146;16.986;2023-01-13T15:13:57;1.75;;;1.60;;
10442;SDS011;5269;51.146;16.986;2023-01-13T15:16:26;2.60;;;1.77;;
10442;SDS011;5269;51.146;16.986;2023-01-13T15:18:56;2.67;;;1.98;;
10442;SDS011;5269;51.146;16.986;2023-01-13T15:21:23;3.25;;;2.30;;
10442;SDS011;5269;51.146;16.986;2023-01-13T15:23:50;2.95;;;2.60;;
10442;SDS011;5269;51.146;16.986;2023-01-13T15:26:19;2.58;;;2.20;;
10442;SDS011;5269;51.146;16.986;2023-01-13T15:28:55;4.47;;;2.53;;
10442;SDS011;5269;51.146;16.986;2023-01-13T15:31:32;2.25;;;2.05;;
10442;SDS011;5269;51.146;16.986;2023-01-13T15:34:13;2.35;;;2.10;;
10442;SDS011;5269;51.146;16.986;2023-01-13T15:36:46;2.88;;;2.33;;
10442;SDS011;5269;51.146;16.986;2023-01-13T15:39:13;2.30;;;2.08;;
10442;SDS011;5269;51.146;16.986;2023-01-13T15:41:49;3.83;;;2.10;;
10442;SDS011;5269;51.146;16.986;2023-01-13T15:44:49;2.30;;;2.00;;
10442;SDS011;5269;51.146;16.986;2023-01-13T15:47:35;2.40;;;2.05;;
10442;SDS011;5269;51.146;16.986;2023-01-13T15:50:02;2.33;;;1.92;;
10442;SDS011;5269;51.146;16.986;2023-01-13T15:52:30;2.67;;;2.08;;
10442;SDS011;5269;51.146;16.986;2023-01-13T15:54:57;4.18;;;2.10;;
10442;SDS011;5269;51.146;16.986;2023-01-13T15:57:24;2.60;;;1.90;;
10442;SDS011;5269;51.146;16.986;2023-01-13T15:59:55;2.85;;;1.90;;
10442;SDS011;5269;51.146;16.986;2023-01-13T16:02:28;1.92;;;1.70;;
10442;SDS011;5269;51.146;16.986;2023-01-13T16:04:55;2.30;;;1.90;;
10442;SDS011;5269;51.146;16.986;2023-01-13T16:07:22;2.60;;;2.08;;
10442;SDS011;5269;51.146;16.986;2023-01-13T16:09:50;2.00;;;1.77;;
10442;SDS011;5269;51.146;16.986;2023-01-13T16:12:23;3.13;;;1.95;;
10442;SDS011;5269;51.146;16.986;2023-01-13T16:14:50;3.60;;;2.15;;
10442;SDS011;5269;51.146;16.986;2023-01-13T16:17:26;4.20;;;2.47;;
10442;SDS011;5269;51.146;16.986;2023-01-13T16:20:00;3.47;;;2.63;;
10442;SDS011;5269;51.146;16.986;2023-01-13T16:22:27;3.40;;;2.80;;
10442;SDS011;5269;51.146;16.986;2023-01-13T16:24:54;3.28;;;2.70;;
10442;SDS011;5269;51.146;16.986;2023-01-13T16:27:22;3.45;;;2.70;;
10442;SDS011;5269;51.146;16.986;2023-01-13T16:29:50;5.00;;;2.72;;
10442;SDS011;5269;51.146;16.986;2023-01-13T16:32:18;5.32;;;3.17;;
10442;SDS011;5269;51.146;16.986;2023-01-13T16:34:46;3.05;;;2.75;;
10442;SDS011;5269;51.146;16.986;2023-01-13T16:37:16;3.42;;;2.47;;
10442;SDS011;5269;51.146;16.986;2023-01-13T16:39:45;3.08;;;2.78;;
10442;SDS011;5269;51.146;16.986;2023-01-13T16:42:12;3.10;;;2.78;;
10442;SDS011;5269;51.146;16.986;2023-01-13T16:44:39;3.08;;;2.63;;
10442;SDS011;5269;51.146;16.986;2023-01-13T16:47:08;3.75;;;2.72;;
10442;SDS011;5269;51.146;16.986;2023-01-13T16:49:38;3.22;;;2.33;;
10442;SDS011;5269;51.146;16.986;2023-01-13T16:52:06;3.78;;;2.58;;
10442;SDS011;5269;51.146;16.986;2023-01-13T16:54:39;3.45;;;2.72;;
10442;SDS011;5269;51.146;16.986;2023-01-13T16:57:09;3.58;;;2.83;;
10442;SDS011;5269;51.146;16.986;2023-01-13T16:59:38;3.10;;;2.80;;
10442;SDS011;5269;51.146;16.986;2023-01-13T17:02:09;5.00;;;3.50;;
10442;SDS011;5269;51.146;16.986;2023-01-13T17:04:38;4.07;;;3.30;;
10442;SDS011;5269;51.146;16.986;2023-01-13T17:07:07;3.50;;;3.00;;
10442;SDS011;5269;51.146;16.986;2023-01-13T17:09:39;5.22;;;3.90;;
10442;SDS011;5269;51.146;16.986;2023-01-13T17:12:06;5.38;;;3.80;;
10442;SDS011;5269;51.146;16.986;2023-01-13T17:14:36;8.30;;;3.70;;
10442;SDS011;5269;51.146;16.986;2023-01-13T17:17:07;4.53;;;3.30;;
10442;SDS011;5269;51.146;16.986;2023-01-13T17:19:58;5.47;;;3.15;;
10442;SDS011;5269;51.146;16.986;2023-01-13T17:25:06;4.03;;;2.90;;
10442;SDS011;5269;51.146;16.986;2023-01-13T17:27:34;3.42;;;2.90;;
10442;SDS011;5269;51.146;16.986;2023-01-13T17:30:16;4.10;;;3.08;;
10442;SDS011;5269;51.146;16.986;2023-01-13T17:32:44;4.50;;;3.00;;
10442;SDS011;5269;51.146;16.986;2023-01-13T17:35:13;6.05;;;3.30;;
10442;SDS011;5269;51.146;16.986;2023-01-13T17:37:47;5.35;;;3.63;;
10442;SDS011;5269;51.146;16.986;2023-01-13T17:40:14;5.15;;;3.85;;
10442;SDS011;5269;51.146;16.986;2023-01-13T17:42:42;4.55;;;3.45;;
10442;SDS011;5269;51.146;16.986;2023-01-13T17:47:44;7.18;;;3.80;;
10442;SDS011;5269;51.146;16.986;2023-01-13T17:50:11;5.75;;;4.28;;
10442;SDS011;5269;51.146;16.986;2023-01-13T17:52:38;6.82;;;4.97;;
10442;SDS011;5269;51.146;16.986;2023-01-13T17:55:14;5.85;;;4.20;;
10442;SDS011;5269;51.146;16.986;2023-01-13T17:57:44;5.93;;;4.40;;
10442;SDS011;5269;51.146;16.986;2023-01-13T18:00:12;5.60;;;4.35;;
10442;SDS011;5269;51.146;16.986;2023-01-13T18:02:44;6.72;;;4.43;;
10442;SDS011;5269;51.146;16.986;2023-01-13T18:05:20;6.13;;;4.30;;
10442;SDS011;5269;51.146;16.986;2023-01-13T18:07:50;6.45;;;4.25;;
10442;SDS011;5269;51.146;16.986;2023-01-13T18:10:19;6.72;;;4.13;;
10442;SDS011;5269;51.146;16.986;2023-01-13T18:12:46;6.80;;;4.07;;
10442;SDS011;5269;51.146;16.986;2023-01-13T18:15:15;5.80;;;4.15;;
10442;SDS011;5269;51.146;16.986;2023-01-13T18:17:44;6.22;;;4.78;;
10442;SDS011;5269;51.146;16.986;2023-01-13T18:20:20;6.38;;;4.38;;
10442;SDS011;5269;51.146;16.986;2023-01-13T18:23:05;6.30;;;4.40;;
10442;SDS011;5269;51.146;16.986;2023-01-13T18:25:56;5.88;;;4.35;;
10442;SDS011;5269;51.146;16.986;2023-01-13T18:28:40;6.28;;;4.10;;
